Time;durP1;ratioP1;P1;durP2;ratioP2;P2;SDS_P1;SDS_P2;PMS_P1;PMS_P2;Temp;Humidity;BMP_temperature;BMP_pressure;BME280_temperature;BME280_humidity;BME280_pressure;Samples;Min_cycle;Max_cycle;Signal;HPM_P1;HPM_P2
2021/03/17 00:01:19;;;;;;;0.23;0.23;;;10.10;99.90;;;;;;20541865;28;20589;-71
2021/03/17 00:11:22;;;;;;;0.20;0.10;;;10.10;99.90;;;;;;20542610;28;20747;-70
2021/03/17 00:21:35;;;;;;;1.57;0.67;;;9.60;99.90;;;;;;20538362;28;20215;-69
2021/03/17 00:31:40;;;;;;;1.20;0.57;;;9.60;99.90;;;;;;20536530;28;20595;-70
2021/03/17 00:41:45;;;;;;;3.70;1.40;;;9.20;99.90;;;;;;20540598;28;20618;-70
2021/03/17 00:51:59;;;;;;;0.20;0.10;;;9.20;99.90;;;;;;20539352;28;20275;-69
2021/03/17 01:02:02;;;;;;;1.70;0.30;;;9.10;99.90;;;;;;20551800;23;20732;-74
2021/03/17 01:12:07;;;;;;;0.33;0.33;;;8.90;99.90;;;;;;20535454;28;20650;-74
2021/03/17 01:22:19;;;;;;;0.47;0.47;;;9.20;99.90;;;;;;20519227;28;20228;-74
2021/03/17 01:32:21;;;;;;;0.90;0.70;;;9.20;99.90;;;;;;20535363;28;20196;-74
2021/03/17 01:42:25;;;;;;;0.20;0.10;;;9.00;99.90;;;;;;20534140;28;20232;-73
2021/03/17 01:52:39;;;;;;;0.80;0.50;;;9.00;99.90;;;;;;20534119;28;20195;-73
2021/03/17 02:02:48;;;;;;;0.20;0.10;;;8.80;99.90;;;;;;20534285;28;20243;-73
2021/03/17 02:13:23;;;;;;;0.33;0.30;;;8.90;99.90;;;;;;20530521;28;20203;-73
2021/03/17 02:23:32;;;;;;;0.30;0.30;;;8.60;99.90;;;;;;20532380;28;20227;-76
2021/03/17 02:33:48;;;;;;;0.60;0.60;;;8.70;99.90;;;;;;20529970;28;20204;-76
2021/03/17 02:43:55;;;;;;;0.47;0.47;;;8.70;99.90;;;;;;20528928;28;20227;-73
2021/03/17 02:54:02;;;;;;;4.93;2.10;;;8.70;99.90;;;;;;20529166;28;20724;-74
2021/03/17 03:04:08;;;;;;;0.63;0.63;;;8.60;99.90;;;;;;20543074;23;21156;-70
2021/03/17 03:14:13;;;;;;;2.27;1.03;;;8.70;99.90;;;;;;20530895;28;20196;-70
2021/03/17 03:24:16;;;;;;;0.60;0.60;;;8.60;99.90;;;;;;20529804;28;20228;-71
2021/03/17 03:34:20;;;;;;;0.70;0.67;;;8.30;99.90;;;;;;20528739;28;20219;-70
2021/03/17 03:44:22;;;;;;;0.63;0.63;;;8.50;99.90;;;;;;20529642;28;20274;-71
2021/03/17 03:54:37;;;;;;;1.77;1.23;;;8.80;99.90;;;;;;20528751;28;20208;-71
2021/03/17 04:04:45;;;;;;;1.30;0.87;;;9.20;99.90;;;;;;20538831;28;20593;-71
2021/03/17 04:14:53;;;;;;;0.73;0.73;;;9.40;99.90;;;;;;20540560;28;20478;-71
2021/03/17 04:24:58;;;;;;;2.60;0.50;;;9.60;99.90;;;;;;20518658;28;20232;-70
2021/03/17 04:35:02;;;;;;;2.37;2.00;;;9.90;99.90;;;;;;20493673;28;20242;-69
2021/03/17 04:45:09;;;;;;;2.40;0.97;;;9.70;99.90;;;;;;20540360;28;20235;-69
2021/03/17 04:55:14;;;;;;;19.20;1.00;;;9.60;99.90;;;;;;20555016;28;20397;-69
2021/03/17 05:05:17;;;;;;;0.53;0.53;;;9.60;99.90;;;;;;20551358;23;20294;-73
2021/03/17 05:15:22;;;;;;;1.57;1.10;;;9.60;99.90;;;;;;20534036;28;20218;-74
2021/03/17 05:25:26;;;;;;;0.33;0.33;;;9.50;99.90;;;;;;20535171;28;20239;-73
2021/03/17 05:35:30;;;;;;;0.40;0.40;;;9.80;99.90;;;;;;20536215;28;20200;-73
2021/03/17 05:45:34;;;;;;;0.77;0.77;;;9.90;99.90;;;;;;20534577;28;20239;-73
2021/03/17 05:55:45;;;;;;;0.33;0.33;;;9.40;99.90;;;;;;20531928;28;20204;-74
2021/03/17 06:05:48;;;;;;;2.10;2.00;;;9.30;99.90;;;;;;20533708;28;20826;-73
2021/03/17 06:15:56;;;;;;;0.40;0.40;;;9.30;99.90;;;;;;20531684;28;20201;-72
2021/03/17 06:26:05;;;;;;;1.40;1.13;;;9.60;99.90;;;;;;20453331;28;20221;-75
2021/03/17 06:36:16;;;;;;;2.83;1.27;;;9.80;99.90;;;;;;20453815;28;20530;-73
2021/03/17 06:46:20;;;;;;;0.40;0.40;;;10.00;99.90;;;;;;20448832;28;20295;-73
2021/03/17 06:56:37;;;;;;;1.23;1.13;;;10.20;99.90;;;;;;20446775;28;20336;-73
2021/03/17 07:06:41;;;;;;;1.63;1.53;;;10.50;99.90;;;;;;20445552;28;20665;-73
2021/03/17 07:16:47;;;;;;;0.60;0.57;;;11.10;99.90;;;;;;20444335;28;20196;-71
2021/03/17 07:27:12;;;;;;;0.50;0.50;;;11.30;99.90;;;;;;20510194;28;20228;-71
2021/03/17 07:37:16;;;;;;;0.63;0.60;;;11.70;99.90;;;;;;20480908;28;20220;-73
2021/03/17 07:47:19;;;;;;;2.43;0.77;;;12.20;99.90;;;;;;20529062;28;20224;-72
2021/03/17 07:57:28;;;;;;;0.40;0.40;;;12.60;99.90;;;;;;20504388;28;20905;-75
2021/03/17 08:07:33;;;;;;;0.47;0.47;;;12.60;99.90;;;;;;20496497;28;20236;-72
2021/03/17 08:17:37;;;;;;;0.80;0.20;;;13.10;99.90;;;;;;20531448;28;20192;-74
2021/03/17 08:27:43;;;;;;;1.50;1.10;;;13.40;99.90;;;;;;20477488;28;20713;-74
2021/03/17 08:37:54;;;;;;;2.53;1.17;;;13.40;99.90;;;;;;20490736;28;20562;-77
2021/03/17 08:47:59;;;;;;;0.70;0.33;;;14.00;99.90;;;;;;20497080;28;20304;-72
2021/03/17 08:58:09;;;;;;;2.23;0.67;;;14.10;99.90;;;;;;20487329;28;20645;-72
2021/03/17 09:08:12;;;;;;;0.20;0.10;;;14.70;99.90;;;;;;20486953;28;20228;-73
2021/03/17 09:18:16;;;;;;;0.70;0.70;;;15.10;99.90;;;;;;20535128;28;20595;-73
2021/03/17 09:28:30;;;;;;;0.20;0.10;;;15.30;99.90;;;;;;20530416;28;20370;-70
2021/03/17 09:38:36;;;;;;;0.63;0.63;;;15.70;99.90;;;;;;20533060;28;20201;-72
2021/03/17 09:48:39;;;;;;;0.40;0.40;;;16.10;99.90;;;;;;20534926;28;20251;-72
2021/03/17 09:58:43;;;;;;;0.20;0.10;;;16.50;99.90;;;;;;20529868;28;20567;-72
2021/03/17 10:08:54;;;;;;;1.70;0.90;;;16.90;99.90;;;;;;20528411;28;20323;-71
2021/03/17 10:19:04;;;;;;;0.47;0.30;;;16.90;99.90;;;;;;20530279;28;20231;-72
2021/03/17 10:29:21;;;;;;;1.07;0.60;;;17.00;99.90;;;;;;20523292;28;20527;-70
2021/03/17 10:39:30;;;;;;;1.23;0.70;;;16.60;99.90;;;;;;20540467;28;20276;-71
2021/03/17 10:49:36;;;;;;;0.33;0.13;;;17.30;99.90;;;;;;20511913;28;21030;-71
2021/03/17 10:59:43;;;;;;;2.57;2.00;;;16.90;99.90;;;;;;20527104;28;20615;-73
2021/03/17 11:09:46;;;;;;;0.70;0.70;;;16.20;99.90;;;;;;20528588;28;20295;-73
2021/03/17 11:19:58;;;;;;;1.43;1.33;;;16.30;99.90;;;;;;20525478;28;20226;-74
2021/03/17 11:30:07;;;;;;;2.10;0.80;;;16.20;99.90;;;;;;20450244;28;20209;-72
2021/03/17 11:40:11;;;;;;;2.73;1.70;;;16.80;99.90;;;;;;20446958;28;20286;-73
2021/03/17 11:50:14;;;;;;;1.90;1.27;;;16.70;99.90;;;;;;20443167;28;20204;-71
2021/03/17 12:00:27;;;;;;;3.07;0.73;;;17.50;99.90;;;;;;20461294;28;20228;-74
2021/03/17 12:10:30;;;;;;;1.13;0.97;;;19.60;99.90;;;;;;20518863;28;20849;-71
2021/03/17 12:20:34;;;;;;;1.03;0.97;;;21.20;99.90;;;;;;20490923;28;20250;-70
2021/03/17 12:30:48;;;;;;;14.83;1.17;;;18.80;99.90;;;;;;20536592;28;20191;-70
2021/03/17 12:40:51;;;;;;;5.23;1.30;;;20.60;99.90;;;;;;20536187;28;21358;-71
2021/03/17 12:50:54;;;;;;;1.90;0.47;;;21.60;99.90;;;;;;20527748;28;20188;-70
2021/03/17 13:01:10;;;;;;;0.20;0.20;;;21.40;99.90;;;;;;20550225;28;20246;-73
2021/03/17 13:11:13;;;;;;;2.07;0.70;;;22.60;99.90;;;;;;20510242;28;20196;-73
2021/03/17 13:21:17;;;;;;;0.50;0.40;;;22.10;99.90;;;;;;20496436;28;20224;-74
2021/03/17 13:31:26;;;;;;;1.33;0.83;;;21.60;99.90;;;;;;20473089;28;20338;-72
2021/03/17 13:41:31;;;;;;;1.53;1.43;;;21.50;99.90;;;;;;20464319;28;20750;-72
2021/03/17 13:51:33;;;;;;;0.83;0.83;;;21.80;99.90;;;;;;20530961;28;21041;-73
2021/03/17 14:01:42;;;;;;;1.77;1.00;;;22.60;99.90;;;;;;20546553;28;20263;-70
2021/03/17 14:11:44;;;;;;;0.60;0.60;;;22.00;99.90;;;;;;20533370;28;20307;-68
2021/03/17 14:21:48;;;;;;;0.60;0.60;;;21.60;99.90;;;;;;20528989;28;20227;-72
2021/03/17 14:31:50;;;;;;;7.33;0.67;;;22.50;99.90;;;;;;20531241;28;20426;-70
2021/03/17 14:41:55;;;;;;;1.47;1.07;;;22.20;99.90;;;;;;20487047;28;20228;-72
2021/03/17 14:52:14;;;;;;;0.37;0.27;;;20.90;99.90;;;;;;20526137;28;20200;-70
2021/03/17 15:02:17;;;;;;;3.83;0.60;;;22.10;99.90;;;;;;20526250;28;20239;-73
2021/03/17 15:12:20;;;;;;;0.57;0.30;;;22.00;99.90;;;;;;20518442;28;20211;-72
2021/03/17 15:22:25;;;;;;;0.87;0.87;;;23.20;99.90;;;;;;20480139;28;20228;-73
2021/03/17 15:32:28;;;;;;;1.73;1.40;;;23.30;99.90;;;;;;20451700;28;20220;-73
2021/03/17 15:42:32;;;;;;;4.00;0.50;;;23.40;99.90;;;;;;20442605;28;20228;-75
2021/03/17 15:52:36;;;;;;;0.47;0.47;;;23.00;99.90;;;;;;20458643;28;20237;-71
2021/03/17 16:02:42;;;;;;;0.70;0.70;;;22.00;99.90;;;;;;20487567;28;20729;-72
2021/03/17 16:12:48;;;;;;;0.20;0.20;;;22.40;99.90;;;;;;20478128;28;20209;-71
2021/03/17 16:22:53;;;;;;;0.53;0.53;;;21.10;99.90;;;;;;20497175;28;20228;-73
2021/03/17 16:32:55;;;;;;;0.30;0.30;;;19.20;99.90;;;;;;20497391;28;20208;-68
2021/03/17 16:43:01;;;;;;;1.03;0.63;;;17.80;99.90;;;;;;20469623;28;20232;-71
2021/03/17 16:53:04;;;;;;;7.43;1.77;;;16.90;99.90;;;;;;20457912;28;20548;-70
2021/03/17 17:03:07;;;;;;;0.20;0.17;;;16.60;99.90;;;;;;20534801;28;20379;-70
2021/03/17 17:13:10;;;;;;;0.83;0.43;;;16.60;99.90;;;;;;20516534;28;20268;-71
2021/03/17 17:23:13;;;;;;;0.57;0.53;;;16.70;99.90;;;;;;20472181;28;20239;-72
2021/03/17 17:33:16;;;;;;;1.97;1.03;;;15.90;99.90;;;;;;20470600;28;20510;-71
2021/03/17 17:43:20;;;;;;;3.17;0.73;;;15.50;99.90;;;;;;20461121;28;20635;-67
2021/03/17 17:53:23;;;;;;;0.60;0.13;;;14.60;99.90;;;;;;20447657;29;20197;-70
2021/03/17 18:03:27;;;;;;;0.20;0.10;;;14.40;99.90;;;;;;20461908;28;20379;-70
2021/03/17 18:13:30;;;;;;;0.30;0.20;;;14.10;99.90;;;;;;20499294;28;20192;-69
2021/03/17 18:23:34;;;;;;;4.03;1.07;;;14.00;99.90;;;;;;20504919;28;20230;-71
2021/03/17 18:33:37;;;;;;;3.23;0.80;;;13.90;99.90;;;;;;20526167;28;20219;-69
2021/03/17 18:43:40;;;;;;;1.90;1.30;;;13.90;99.90;;;;;;20527342;28;20372;-69
2021/03/17 18:53:43;;;;;;;4.23;0.30;;;13.70;99.90;;;;;;20471385;28;20286;-70
2021/03/17 19:03:46;;;;;;;0.20;0.20;;;13.70;99.90;;;;;;20520263;28;20234;-69
2021/03/17 19:13:49;;;;;;;0.53;0.37;;;13.70;99.90;;;;;;20530500;28;20207;-70
2021/03/17 19:23:52;;;;;;;13.67;1.03;;;13.80;99.90;;;;;;20470368;28;20831;-69
2021/03/17 19:33:55;;;;;;;0.20;0.20;;;13.60;99.90;;;;;;20476291;28;20215;-70
2021/03/17 19:43:59;;;;;;;0.30;0.30;;;13.70;99.90;;;;;;20542372;28;20430;-70
2021/03/17 19:54:03;;;;;;;0.37;0.37;;;13.80;99.90;;;;;;20539564;28;20662;-68
2021/03/17 20:04:07;;;;;;;0.87;0.87;;;13.80;99.90;;;;;;20538613;28;20265;-68
2021/03/17 20:14:10;;;;;;;3.00;1.63;;;13.60;99.90;;;;;;20559893;28;20207;-73
2021/03/17 20:24:13;;;;;;;0.43;0.43;;;13.70;99.90;;;;;;20493110;28;20327;-72
2021/03/17 20:34:16;;;;;;;5.93;0.53;;;13.50;99.90;;;;;;20484669;28;20254;-74
2021/03/17 20:44:20;;;;;;;7.33;0.70;;;13.50;99.90;;;;;;20530319;28;20216;-74
2021/03/17 20:54:23;;;;;;;0.30;0.30;;;13.60;99.90;;;;;;20485789;28;20222;-75
2021/03/17 21:04:28;;;;;;;0.40;0.37;;;13.80;99.90;;;;;;20458978;29;20307;-74
2021/03/17 21:14:31;;;;;;;0.20;0.10;;;13.80;99.90;;;;;;20492030;28;20550;-75
2021/03/17 21:24:35;;;;;;;0.30;0.30;;;13.60;99.90;;;;;;20501674;28;20289;-75
2021/03/17 21:34:38;;;;;;;0.23;0.13;;;13.50;99.90;;;;;;20500215;28;20193;-74
2021/03/17 21:44:41;;;;;;;1.50;0.17;;;13.40;99.90;;;;;;20494279;28;20593;-74
2021/03/17 21:54:44;;;;;;;1.23;0.60;;;13.40;99.90;;;;;;20492122;28;20184;-76
2021/03/17 22:04:47;;;;;;;0.57;0.50;;;13.30;99.90;;;;;;20493272;28;20421;-75
2021/03/17 22:14:50;;;;;;;0.70;0.67;;;13.20;99.90;;;;;;20507598;28;20192;-75
2021/03/17 22:24:53;;;;;;;4.33;0.53;;;13.30;99.90;;;;;;20468002;28;20310;-76
2021/03/17 22:34:56;;;;;;;0.20;0.20;;;13.30;99.90;;;;;;20485406;28;20462;-75
2021/03/17 22:45:00;;;;;;;0.67;0.50;;;13.20;99.90;;;;;;20532904;28;20842;-76
2021/03/17 22:55:03;;;;;;;3.63;1.07;;;13.10;99.90;;;;;;20529271;28;20196;-76
2021/03/17 23:05:09;;;;;;;1.27;0.93;;;13.10;99.90;;;;;;20529469;28;20286;-76
2021/03/17 23:15:12;;;;;;;0.37;0.33;;;13.20;99.90;;;;;;20531064;28;20200;-77
2021/03/17 23:25:22;;;;;;;1.20;1.10;;;12.80;99.90;;;;;;20530778;28;20384;-76
2021/03/17 23:35:27;;;;;;;1.03;0.87;;;12.70;99.90;;;;;;20528190;28;20219;-76
2021/03/17 23:45:33;;;;;;;4.03;1.23;;;12.70;99.90;;;;;;20530932;28;20510;-74
2021/03/17 23:55:39;;;;;;;0.20;0.20;;;12.60;99.90;;;;;;20529056;28;20290;-75
